createdAt,value
2019-05-02T00:01:37.544Z,34.20
2019-05-02T00:04:07.482Z,35.10
2019-05-02T00:06:42.879Z,34.60
2019-05-02T00:09:11.139Z,33.83
2019-05-02T00:11:41.372Z,34.03
2019-05-02T00:14:11.582Z,35.60
2019-05-02T00:16:45.086Z,33.47
2019-05-02T00:19:14.255Z,34.80
2019-05-02T00:21:45.551Z,34.20
2019-05-02T00:24:15.447Z,34.83
2019-05-02T00:26:45.469Z,33.67
2019-05-02T00:29:18.968Z,35.53
2019-05-02T00:31:48.831Z,37.60
2019-05-02T00:34:18.781Z,38.53
2019-05-02T00:36:48.730Z,37.50
2019-05-02T00:39:18.666Z,39.77
2019-05-02T00:41:48.548Z,38.73
2019-05-02T00:44:18.561Z,41.37
2019-05-02T00:46:48.844Z,42.80
2019-05-02T00:49:19.011Z,41.03
2019-05-02T00:51:48.949Z,43.00
2019-05-02T00:54:23.663Z,42.07
2019-05-02T00:56:50.513Z,42.40
2019-05-02T00:59:20.720Z,43.33
2019-05-02T01:02:14.344Z,41.33
2019-05-02T01:04:45.498Z,41.27
2019-05-02T01:07:15.444Z,41.80
2019-05-02T01:09:46.827Z,40.43
2019-05-02T01:12:26.334Z,42.27
2019-05-02T01:14:49.078Z,42.17
2019-05-02T01:17:19.260Z,40.93
2019-05-02T01:19:51.510Z,39.20
2019-05-02T01:22:20.809Z,38.30
2019-05-02T01:24:50.777Z,41.10
2019-05-02T01:27:36.130Z,38.77
2019-05-02T01:30:18.268Z,38.33
2019-05-02T01:33:01.387Z,38.50
2019-05-02T01:35:54.772Z,38.83
2019-05-02T01:38:31.807Z,40.20
2019-05-02T01:41:00.471Z,40.13
2019-05-02T01:43:31.429Z,37.90
2019-05-02T01:46:01.497Z,37.50
2019-05-02T01:48:31.445Z,39.07
2019-05-02T01:51:04.351Z,40.30
2019-05-02T01:53:34.329Z,36.93
2019-05-02T01:56:05.113Z,39.77
2019-05-02T01:58:35.384Z,37.70
2019-05-02T02:01:05.825Z,37.40
2019-05-02T02:03:35.771Z,36.83
2019-05-02T02:06:07.955Z,38.53
2019-05-02T02:08:37.363Z,36.63
2019-05-02T02:11:07.288Z,38.93
2019-05-02T02:13:38.066Z,38.07
2019-05-02T02:16:08.330Z,38.97
2019-05-02T02:18:43.333Z,38.90
2019-05-02T02:21:25.505Z,37.27
2019-05-02T02:23:57.544Z,38.50
2019-05-02T02:26:27.490Z,37.33
2019-05-02T02:28:57.371Z,37.27
2019-05-02T02:31:27.645Z,38.90
2019-05-02T02:33:57.811Z,39.93
2019-05-02T02:36:34.209Z,37.30
2019-05-02T02:38:59.411Z,36.67
2019-05-02T02:41:29.367Z,34.87
2019-05-02T02:44:09.108Z,35.00
2019-05-02T02:46:41.261Z,35.27
2019-05-02T02:49:14.028Z,36.70
2019-05-02T02:51:42.852Z,37.87
2019-05-02T02:54:12.835Z,38.00
2019-05-02T02:56:42.959Z,38.27
2019-05-02T02:59:19.359Z,39.00
2019-05-02T03:01:44.884Z,41.27
2019-05-02T03:04:15.113Z,40.40
2019-05-02T03:06:47.129Z,40.70
2019-05-02T03:09:20.466Z,40.93
2019-05-02T03:12:07.557Z,42.23
2019-05-02T03:14:47.306Z,40.57
2019-05-02T03:17:13.206Z,40.57
2019-05-02T03:19:43.158Z,41.77
2019-05-02T03:22:13.094Z,42.60
2019-05-02T03:24:46.236Z,43.67
2019-05-02T03:27:15.378Z,39.63
2019-05-02T03:29:45.611Z,42.53
2019-05-02T03:32:29.936Z,41.90
2019-05-02T03:34:52.830Z,41.97
2019-05-02T03:37:19.695Z,41.50
2019-05-02T03:39:57.197Z,43.20
2019-05-02T03:42:21.385Z,41.47
2019-05-02T03:44:56.067Z,40.40
2019-05-02T03:47:23.476Z,40.67
2019-05-02T03:49:53.597Z,41.00
2019-05-02T03:52:23.823Z,39.60
2019-05-02T03:54:53.914Z,41.07
2019-05-02T03:57:32.025Z,43.40
2019-05-02T03:59:55.708Z,41.33
2019-05-02T04:02:27.172Z,39.40
2019-05-02T04:05:00.572Z,40.43
2019-05-02T04:07:39.747Z,38.90
2019-05-02T04:10:02.143Z,37.43
2019-05-02T04:12:33.404Z,40.60
2019-05-02T04:15:03.415Z,41.47
2019-05-02T04:17:35.400Z,40.13
2019-05-02T04:20:09.259Z,40.80
2019-05-02T04:22:42.879Z,38.23
2019-05-02T04:25:10.732Z,42.30
2019-05-02T04:27:41.719Z,40.77
2019-05-02T04:30:14.246Z,40.67
2019-05-02T04:32:49.561Z,38.07
2019-05-02T04:35:15.717Z,39.23
2019-05-02T04:37:45.598Z,39.50
2019-05-02T04:40:18.211Z,41.20
2019-05-02T04:42:53.455Z,40.20
2019-05-02T04:45:27.548Z,39.50
2019-05-02T04:47:58.462Z,39.73
2019-05-02T04:50:25.197Z,39.40
2019-05-02T04:52:55.081Z,39.37
2019-05-02T04:55:30.222Z,39.97
2019-05-02T04:57:58.814Z,40.97
2019-05-02T05:00:29.014Z,41.93
2019-05-02T05:02:59.093Z,38.70
2019-05-02T05:05:31.386Z,39.67
2019-05-02T05:08:00.561Z,38.73
2019-05-02T05:10:40.240Z,36.87
2019-05-02T05:13:02.760Z,39.07
2019-05-02T05:15:38.352Z,40.80
2019-05-02T05:18:10.468Z,39.67
2019-05-02T05:20:38.573Z,39.07
2019-05-02T05:23:08.345Z,40.17
2019-05-02T05:25:47.905Z,40.30
2019-05-02T05:28:19.956Z,38.87
2019-05-02T05:30:52.154Z,40.87
2019-05-02T05:33:21.839Z,39.47
2019-05-02T05:35:53.036Z,41.43
2019-05-02T05:38:27.840Z,40.70
2019-05-02T05:40:54.557Z,41.37
2019-05-02T05:43:24.680Z,42.43
2019-05-02T05:46:06.049Z,40.90
2019-05-02T05:48:32.111Z,39.20
2019-05-02T05:51:00.218Z,38.87
2019-05-02T05:53:30.156Z,41.20
2019-05-02T05:56:02.456Z,41.10
2019-05-02T05:58:32.052Z,44.40
2019-05-02T06:01:02.330Z,41.63
2019-05-02T06:03:34.052Z,41.33
2019-05-02T06:06:03.958Z,41.17
2019-05-02T06:08:33.917Z,39.37
2019-05-02T06:11:03.881Z,40.80
2019-05-02T06:13:33.750Z,40.67
2019-05-02T06:16:03.807Z,42.90
2019-05-02T06:18:36.432Z,44.87
2019-05-02T06:21:08.706Z,40.37
2019-05-02T06:23:41.361Z,39.73
2019-05-02T06:26:13.449Z,42.60
2019-05-02T06:28:43.229Z,43.13
2019-05-02T06:31:13.425Z,41.53
2019-05-02T06:33:43.306Z,44.70
2019-05-02T06:36:14.001Z,44.73
2019-05-02T06:38:43.926Z,47.23
2019-05-02T06:41:16.166Z,44.97
2019-05-02T06:43:46.533Z,42.10
2019-05-02T06:46:21.597Z,45.40
2019-05-02T06:48:52.299Z,42.93
2019-05-02T06:51:21.282Z,41.80
2019-05-02T06:53:51.195Z,42.63
2019-05-02T06:56:22.210Z,37.43
2019-05-02T06:58:54.465Z,32.43
2019-05-02T07:01:24.732Z,29.33
2019-05-02T07:03:54.946Z,30.50
2019-05-02T07:06:26.336Z,32.43
2019-05-02T07:08:59.455Z,30.80
2019-05-02T07:11:28.426Z,27.57
2019-05-02T07:14:11.807Z,28.73
2019-05-02T07:16:39.639Z,31.13
2019-05-02T07:19:30.641Z,28.23
2019-05-02T07:22:04.222Z,30.20
2019-05-02T07:24:32.780Z,32.50
2019-05-02T07:27:04.237Z,28.37
2019-05-02T07:29:34.203Z,30.00
2019-05-02T07:32:04.169Z,32.87
2019-05-02T07:34:34.050Z,32.97
2019-05-02T07:37:08.410Z,33.67
2019-05-02T07:39:36.065Z,34.83
2019-05-02T07:42:07.889Z,34.20
2019-05-02T07:44:37.943Z,34.47
2019-05-02T07:47:07.882Z,34.77
2019-05-02T07:49:38.627Z,36.17
2019-05-02T07:52:09.152Z,33.50
2019-05-02T07:54:39.379Z,34.60
2019-05-02T07:57:09.650Z,34.63
2019-05-02T07:59:40.023Z,34.90
2019-05-02T08:02:09.956Z,35.33
2019-05-02T08:04:43.537Z,34.43
2019-05-02T08:07:11.661Z,34.80
2019-05-02T08:09:44.071Z,31.97
2019-05-02T08:12:15.546Z,35.17
2019-05-02T08:14:45.521Z,37.50
2019-05-02T08:17:17.042Z,36.30
2019-05-02T08:19:47.413Z,34.13
2019-05-02T08:22:17.361Z,34.53
2019-05-02T08:24:47.303Z,37.50
2019-05-02T08:27:39.040Z,38.83
2019-05-02T08:30:15.933Z,39.57
2019-05-02T08:32:45.867Z,41.10
2019-05-02T08:35:15.862Z,39.87
2019-05-02T08:37:45.749Z,41.23
2019-05-02T08:40:15.804Z,40.47
2019-05-02T08:42:45.753Z,44.53
2019-05-02T08:45:16.168Z,42.83
2019-05-02T08:47:46.112Z,44.43
2019-05-02T08:50:16.153Z,41.70
2019-05-02T08:52:48.151Z,42.87
2019-05-02T08:55:18.185Z,39.53
2019-05-02T08:57:49.571Z,39.80
2019-05-02T09:00:19.650Z,43.03
2019-05-02T09:02:49.542Z,41.83
2019-05-02T09:05:19.476Z,41.87
2019-05-02T09:07:50.059Z,40.50
2019-05-02T09:10:20.030Z,40.53
2019-05-02T09:12:52.165Z,40.60
2019-05-02T09:15:22.438Z,40.43
2019-05-02T09:17:56.218Z,42.13
2019-05-02T09:20:24.347Z,41.50
2019-05-02T09:22:56.071Z,39.13
2019-05-02T09:25:26.099Z,38.87
2019-05-02T09:27:56.592Z,40.70
2019-05-02T09:30:26.626Z,38.17
2019-05-02T09:32:57.130Z,36.90
2019-05-02T09:35:28.459Z,36.07
2019-05-02T09:38:01.626Z,36.40
2019-05-02T09:40:31.886Z,34.57
2019-05-02T09:43:04.720Z,36.43
2019-05-02T09:45:37.409Z,36.73
2019-05-02T09:48:08.081Z,36.73
2019-05-02T09:50:38.515Z,36.97
2019-05-02T09:53:13.184Z,38.27
2019-05-02T09:55:42.273Z,37.67
2019-05-02T09:58:19.689Z,37.17
2019-05-02T10:01:15.022Z,37.90
2019-05-02T10:03:45.517Z,34.17
2019-05-02T10:06:18.125Z,34.33
2019-05-02T10:08:47.856Z,36.00
2019-05-02T10:11:22.510Z,35.63
2019-05-02T10:13:51.904Z,36.80
2019-05-02T10:16:23.565Z,37.40
2019-05-02T10:18:53.827Z,38.17
2019-05-02T10:21:23.790Z,38.07
2019-05-02T10:23:59.315Z,37.37
2019-05-02T10:26:25.571Z,38.03
2019-05-02T10:28:55.595Z,38.33
2019-05-02T10:31:27.624Z,37.83
2019-05-02T10:33:57.440Z,38.53
2019-05-02T10:36:27.638Z,35.87
2019-05-02T10:38:59.365Z,36.60
2019-05-02T10:41:31.701Z,36.23
2019-05-02T10:44:02.230Z,37.53
2019-05-02T10:46:52.344Z,37.77
2019-05-02T10:49:28.226Z,35.47
2019-05-02T10:51:59.093Z,36.40
2019-05-02T10:54:33.600Z,36.10
2019-05-02T10:57:02.326Z,33.43
2019-05-02T10:59:32.871Z,36.17
2019-05-02T11:02:22.257Z,34.43
2019-05-02T11:04:55.909Z,34.33
2019-05-02T11:07:26.770Z,33.30
2019-05-02T11:10:03.239Z,35.27
2019-05-02T11:12:44.082Z,33.67
2019-05-02T11:15:32.512Z,34.10
2019-05-02T11:18:03.276Z,33.70
2019-05-02T11:20:33.394Z,33.17
2019-05-02T11:23:03.355Z,33.27
2019-05-02T11:25:33.300Z,34.93
2019-05-02T11:28:07.107Z,32.50
2019-05-02T11:30:36.669Z,27.80
2019-05-02T11:33:06.879Z,31.43
2019-05-02T11:35:36.972Z,31.33
2019-05-02T11:38:06.978Z,34.70
2019-05-02T11:40:36.956Z,29.93
2019-05-02T11:43:07.180Z,28.10
2019-05-02T11:45:37.056Z,28.20
2019-05-02T11:48:09.215Z,29.03
2019-05-02T11:50:39.268Z,28.70
2019-05-02T11:53:23.271Z,29.73
2019-05-02T11:55:41.985Z,28.07
2019-05-02T11:58:12.695Z,31.80
2019-05-02T12:00:45.334Z,31.73
2019-05-02T12:03:23.637Z,32.80
2019-05-02T12:05:53.595Z,29.37
2019-05-02T12:08:23.878Z,31.80
2019-05-02T12:10:53.886Z,32.13
2019-05-02T12:13:23.847Z,30.23
2019-05-02T12:15:53.759Z,32.03
2019-05-02T12:18:23.717Z,29.87
2019-05-02T12:20:53.654Z,29.47
2019-05-02T12:23:23.558Z,28.37
2019-05-02T12:25:53.837Z,30.70
2019-05-02T12:28:23.745Z,32.53
2019-05-02T12:30:54.030Z,29.60
2019-05-02T12:33:25.974Z,29.83
2019-05-02T12:35:56.217Z,30.80
2019-05-02T12:38:26.637Z,29.37
2019-05-02T12:40:58.017Z,27.10
2019-05-02T12:43:27.921Z,28.20
2019-05-02T12:45:57.872Z,31.13
2019-05-02T12:48:27.840Z,26.80
2019-05-02T12:50:57.698Z,26.97
2019-05-02T12:53:28.719Z,25.53
2019-05-02T12:55:58.587Z,26.57
2019-05-02T12:58:28.720Z,24.53
2019-05-02T13:00:58.669Z,25.57
2019-05-02T13:03:39.302Z,25.30
2019-05-02T13:06:09.243Z,24.93
2019-05-02T13:08:52.427Z,24.80
2019-05-02T13:11:42.279Z,22.63
2019-05-02T13:14:18.615Z,22.97
2019-05-02T13:16:43.017Z,21.90
2019-05-02T13:19:14.284Z,20.43
2019-05-02T13:22:03.488Z,20.60
2019-05-02T13:24:37.119Z,20.33
2019-05-02T13:27:12.501Z,20.80
2019-05-02T13:29:42.910Z,19.63
2019-05-02T13:32:19.028Z,17.70
2019-05-02T13:34:56.984Z,19.87
2019-05-02T13:37:25.913Z,17.60
2019-05-02T13:40:12.537Z,21.40
2019-05-02T13:42:42.740Z,22.10
2019-05-02T13:45:37.679Z,20.83
2019-05-02T13:48:09.195Z,20.07
2019-05-02T13:50:39.217Z,17.10
2019-05-02T13:53:12.013Z,17.17
2019-05-02T13:55:46.473Z,18.03
2019-05-02T13:58:23.436Z,15.50
2019-05-02T14:00:49.267Z,15.07
2019-05-02T14:03:19.210Z,16.90
2019-05-02T14:05:53.256Z,15.73
2019-05-02T14:08:32.481Z,15.80
2019-05-02T14:11:18.118Z,15.90
2019-05-02T14:13:48.114Z,15.70
2019-05-02T14:16:18.285Z,17.37
2019-05-02T14:18:48.471Z,18.50
2019-05-02T14:21:18.340Z,18.43
2019-05-02T14:23:48.293Z,19.57
2019-05-02T14:26:29.691Z,20.17
2019-05-02T14:28:50.214Z,20.23
2019-05-02T14:31:21.694Z,22.00
2019-05-02T14:34:12.113Z,22.17
2019-05-02T14:36:42.717Z,22.77
2019-05-02T14:39:12.884Z,21.10
2019-05-02T14:41:44.676Z,23.17
2019-05-02T14:44:17.909Z,24.93
2019-05-02T14:46:46.944Z,26.30
2019-05-02T14:49:22.076Z,28.07
2019-05-02T14:51:49.159Z,28.10
2019-05-02T14:54:19.329Z,31.20
2019-05-02T14:56:54.303Z,30.10
2019-05-02T14:59:24.629Z,28.17
2019-05-02T15:02:02.473Z,29.23
2019-05-02T15:04:29.478Z,28.60
2019-05-02T15:06:59.525Z,28.63
2019-05-02T15:09:29.493Z,27.07
2019-05-02T15:11:59.532Z,30.67
2019-05-02T15:14:34.069Z,28.77
2019-05-02T15:17:05.068Z,31.00
2019-05-02T15:19:35.109Z,32.30
2019-05-02T15:22:05.399Z,30.20
2019-05-02T15:24:37.801Z,30.80
2019-05-02T15:27:11.805Z,28.43
2019-05-02T15:29:38.658Z,27.83
2019-05-02T15:32:25.640Z,29.63
2019-05-02T15:35:35.831Z,30.03
2019-05-02T15:38:06.922Z,29.40
2019-05-02T15:40:46.837Z,33.73
2019-05-02T15:43:09.591Z,32.70
2019-05-02T15:45:43.414Z,31.67
2019-05-02T15:48:14.657Z,35.60
2019-05-02T15:50:50.252Z,32.20
2019-05-02T15:53:32.626Z,34.57
2019-05-02T15:56:02.699Z,32.13
2019-05-02T15:58:33.310Z,31.53
2019-05-02T16:01:22.566Z,33.60
2019-05-02T16:03:53.745Z,35.63
2019-05-02T16:06:30.324Z,43.47
2019-05-02T16:08:56.772Z,45.43
2019-05-02T16:11:27.129Z,42.33
2019-05-02T16:13:57.077Z,27.37
2019-05-02T16:16:27.031Z,26.77
2019-05-02T16:18:57.040Z,30.07
2019-05-02T16:21:38.980Z,30.33
2019-05-02T16:24:22.999Z,33.43
2019-05-02T16:26:56.933Z,37.50
2019-05-02T16:29:28.816Z,37.03
2019-05-02T16:32:15.961Z,34.17
2019-05-02T16:34:55.095Z,33.37
2019-05-02T16:37:25.621Z,33.63
2019-05-02T16:39:55.821Z,35.03
2019-05-02T16:42:25.886Z,34.70
2019-05-02T16:44:55.873Z,34.63
2019-05-02T16:47:26.146Z,26.27
2019-05-02T16:49:56.638Z,26.50
2019-05-02T16:52:26.692Z,25.00
2019-05-02T16:54:56.668Z,25.53
2019-05-02T16:57:26.638Z,22.70
2019-05-02T17:00:01.687Z,24.30
2019-05-02T17:02:28.132Z,23.03
2019-05-02T17:05:00.248Z,25.30
2019-05-02T17:07:52.927Z,23.03
2019-05-02T17:10:35.216Z,25.90
2019-05-02T17:13:05.371Z,24.70
2019-05-02T17:15:36.727Z,23.10
2019-05-02T17:18:12.979Z,23.97
2019-05-02T17:20:38.949Z,25.23
2019-05-02T17:23:08.905Z,24.40
2019-05-02T17:25:41.524Z,25.30
2019-05-02T17:28:13.319Z,24.60
2019-05-02T17:30:44.478Z,24.07
2019-05-02T17:33:16.404Z,24.07
2019-05-02T17:35:51.356Z,24.87
2019-05-02T17:38:19.007Z,25.97
2019-05-02T17:40:53.730Z,24.97
2019-05-02T17:43:22.688Z,25.57
2019-05-02T17:45:53.375Z,25.87
2019-05-02T17:48:23.328Z,25.30
2019-05-02T17:51:04.027Z,25.23
2019-05-02T17:53:41.551Z,25.80
2019-05-02T17:56:05.673Z,22.33
2019-05-02T17:58:35.484Z,22.93
2019-05-02T18:01:09.125Z,23.93
2019-05-02T18:03:39.237Z,22.90
2019-05-02T18:06:13.216Z,22.07
2019-05-02T18:08:41.736Z,22.17
2019-05-02T18:11:12.711Z,19.03
2019-05-02T18:13:42.632Z,19.27
2019-05-02T18:16:16.638Z,18.57
2019-05-02T18:18:46.726Z,17.77
2019-05-02T18:21:17.738Z,17.60
2019-05-02T18:23:48.445Z,18.93
2019-05-02T18:26:18.426Z,20.27
2019-05-02T18:28:49.383Z,18.27
2019-05-02T18:31:19.381Z,20.17
2019-05-02T18:33:49.506Z,20.57
2019-05-02T18:36:23.916Z,19.60
2019-05-02T18:38:52.512Z,20.83
2019-05-02T18:41:23.232Z,20.57
2019-05-02T18:43:53.158Z,22.67
2019-05-02T18:46:23.091Z,21.97
2019-05-02T18:48:53.594Z,21.27
2019-05-02T18:51:23.837Z,22.07
2019-05-02T18:53:58.007Z,24.20
2019-05-02T18:56:25.424Z,22.43
2019-05-02T18:58:55.719Z,23.53
2019-05-02T19:01:25.721Z,22.83
2019-05-02T19:03:56.306Z,22.80
2019-05-02T19:06:27.930Z,24.80
2019-05-02T19:09:02.155Z,24.80
2019-05-02T19:11:35.306Z,25.47
2019-05-02T19:14:05.898Z,22.00
2019-05-02T19:16:35.841Z,24.40
2019-05-02T19:19:06.108Z,23.57
2019-05-02T19:21:39.387Z,23.70
2019-05-02T19:24:07.851Z,23.07
2019-05-02T19:26:41.669Z,22.03
2019-05-02T19:29:17.308Z,21.30
2019-05-02T19:31:49.903Z,25.33
2019-05-02T19:34:24.177Z,22.60
2019-05-02T19:36:52.843Z,24.83
2019-05-02T19:39:24.310Z,24.20
2019-05-02T19:41:55.185Z,24.87
2019-05-02T19:44:28.872Z,24.10
2019-05-02T19:46:57.750Z,24.33
2019-05-02T19:49:27.707Z,23.57
2019-05-02T19:51:58.328Z,23.67
2019-05-02T19:54:33.559Z,24.77
2019-05-02T19:56:59.900Z,25.63
2019-05-02T19:59:32.020Z,23.17
2019-05-02T20:02:05.931Z,25.70
2019-05-02T20:04:37.769Z,24.50
2019-05-02T20:07:05.157Z,25.87
2019-05-02T20:09:38.078Z,25.03
2019-05-02T20:12:09.642Z,23.60
2019-05-02T20:14:43.636Z,23.87
2019-05-02T20:17:14.944Z,24.27
2019-05-02T20:19:47.639Z,22.47
2019-05-02T20:22:18.655Z,22.20
2019-05-02T20:25:06.739Z,23.30
2019-05-02T20:27:36.678Z,23.03
2019-05-02T20:30:07.692Z,24.03
2019-05-02T20:32:37.644Z,26.00
2019-05-02T20:35:07.925Z,24.70
2019-05-02T20:37:38.069Z,24.30
2019-05-02T20:40:09.605Z,26.03
2019-05-02T20:42:39.477Z,26.13
2019-05-02T20:45:11.656Z,26.87
2019-05-02T20:47:42.735Z,26.37
2019-05-02T20:50:13.059Z,28.43
2019-05-02T20:52:42.944Z,26.07
2019-05-02T20:55:13.075Z,26.07
2019-05-02T20:57:43.211Z,23.77
2019-05-02T21:00:23.554Z,23.27
2019-05-02T21:02:53.649Z,20.70
2019-05-02T21:05:32.118Z,18.47
2019-05-02T21:08:15.012Z,15.77
2019-05-02T21:10:45.357Z,16.17
2019-05-02T21:13:15.365Z,15.60
2019-05-02T21:15:45.310Z,13.90
2019-05-02T21:18:16.390Z,14.13
2019-05-02T21:20:46.392Z,13.57
2019-05-02T21:23:16.647Z,13.17
2019-05-02T21:25:46.590Z,11.97
2019-05-02T21:28:16.525Z,12.13
2019-05-02T21:30:46.472Z,10.70
2019-05-02T21:33:33.675Z,11.07
2019-05-02T21:36:04.779Z,11.07
2019-05-02T21:38:34.766Z,11.20
2019-05-02T21:41:07.668Z,11.93
2019-05-02T21:43:38.604Z,10.77
2019-05-02T21:46:08.490Z,10.70
2019-05-02T21:48:38.429Z,10.00
2019-05-02T21:51:17.859Z,9.60
2019-05-02T21:54:07.337Z,9.80
2019-05-02T21:56:43.353Z,9.37
2019-05-02T21:59:14.382Z,10.10
2019-05-02T22:01:52.182Z,8.97
2019-05-02T22:04:22.886Z,8.90
2019-05-02T22:06:53.198Z,8.67
2019-05-02T22:09:24.111Z,8.20
2019-05-02T22:11:54.045Z,7.73
2019-05-02T22:14:24.005Z,8.03
2019-05-02T22:16:54.283Z,8.10
2019-05-02T22:19:24.501Z,7.77
2019-05-02T22:21:54.776Z,7.30
2019-05-02T22:24:24.652Z,8.07
2019-05-02T22:26:54.602Z,7.57
2019-05-02T22:29:24.544Z,7.50
2019-05-02T22:31:54.880Z,7.63
2019-05-02T22:34:25.129Z,6.87
2019-05-02T22:36:55.059Z,7.17
2019-05-02T22:39:39.560Z,7.30
2019-05-02T22:42:09.534Z,6.93
2019-05-02T22:44:39.484Z,6.53
2019-05-02T22:47:11.856Z,6.30
2019-05-02T22:49:43.145Z,7.50
2019-05-02T22:52:14.387Z,7.50
2019-05-02T22:54:44.686Z,6.37
2019-05-02T22:57:14.991Z,7.47
2019-05-02T22:59:44.849Z,6.20
2019-05-02T23:02:14.790Z,7.23
2019-05-02T23:04:44.659Z,6.30
2019-05-02T23:07:14.587Z,6.23
2019-05-02T23:09:44.869Z,6.10
2019-05-02T23:12:15.135Z,6.43
2019-05-02T23:14:46.569Z,7.03
2019-05-02T23:17:16.419Z,6.03
2019-05-02T23:19:46.366Z,6.90
2019-05-02T23:22:16.220Z,7.00
2019-05-02T23:25:04.428Z,7.23
2019-05-02T23:27:42.415Z,6.93
2019-05-02T23:30:14.946Z,7.17
2019-05-02T23:32:45.223Z,7.33
2019-05-02T23:35:15.794Z,7.57
2019-05-02T23:37:45.669Z,7.33
2019-05-02T23:40:15.786Z,6.63
2019-05-02T23:42:45.728Z,7.13
2019-05-02T23:45:15.674Z,6.83
2019-05-02T23:47:45.850Z,7.47
2019-05-02T23:50:15.878Z,7.43
2019-05-02T23:52:46.458Z,7.17
2019-05-02T23:55:16.403Z,7.53
2019-05-02T23:57:46.324Z,7.60
